createdAt,value
2022-08-26T00:01:52.653Z,16.03
2022-08-26T00:04:22.277Z,15.96
2022-08-26T00:06:49.623Z,15.95
2022-08-26T00:09:17.093Z,15.92
2022-08-26T00:11:45.471Z,15.88
2022-08-26T00:14:14.019Z,15.93
2022-08-26T00:16:47.852Z,15.92
2022-08-26T00:19:20.822Z,15.95
2022-08-26T00:21:49.845Z,15.92
2022-08-26T00:24:19.670Z,15.92
2022-08-26T00:26:47.783Z,15.90
2022-08-26T00:29:15.845Z,15.86
2022-08-26T00:31:45.146Z,15.84
2022-08-26T00:34:14.250Z,15.77
2022-08-26T00:36:43.933Z,15.74
2022-08-26T00:39:11.427Z,15.70
2022-08-26T00:41:40.718Z,15.70
2022-08-26T00:44:11.531Z,15.65
2022-08-26T00:47:00.474Z,15.59
2022-08-26T00:49:38.610Z,15.58
2022-08-26T00:52:09.890Z,15.53
2022-08-26T00:54:46.756Z,15.49
2022-08-26T00:57:16.958Z,15.48
2022-08-26T00:59:50.411Z,15.46
2022-08-26T01:02:20.775Z,15.45
2022-08-26T01:04:56.502Z,15.42
2022-08-26T01:07:26.294Z,15.41
2022-08-26T01:09:56.033Z,15.42
2022-08-26T01:12:25.407Z,15.36
2022-08-26T01:14:52.951Z,15.27
2022-08-26T01:17:20.452Z,15.26
2022-08-26T01:19:51.281Z,15.19
2022-08-26T01:22:22.585Z,15.25
2022-08-26T01:24:57.958Z,15.12
2022-08-26T01:27:27.387Z,15.21
2022-08-26T01:30:00.750Z,15.18
2022-08-26T01:32:30.508Z,15.20
2022-08-26T01:34:59.521Z,15.19
2022-08-26T01:37:33.472Z,15.17
2022-08-26T01:40:00.977Z,15.19
2022-08-26T01:42:28.877Z,15.19
2022-08-26T01:45:00.076Z,15.17
2022-08-26T01:47:30.693Z,15.10
2022-08-26T01:50:00.318Z,15.06
2022-08-26T01:52:29.180Z,15.10
2022-08-26T01:54:57.885Z,15.05
2022-08-26T01:57:27.117Z,15.00
2022-08-26T01:59:57.611Z,14.99
2022-08-26T02:02:25.169Z,15.00
2022-08-26T02:04:59.606Z,15.03
2022-08-26T02:07:27.189Z,15.04
2022-08-26T02:09:55.218Z,15.05
2022-08-26T02:12:22.575Z,15.06
2022-08-26T02:14:53.795Z,15.04
2022-08-26T02:17:25.005Z,15.03
2022-08-26T02:19:52.543Z,15.03
2022-08-26T02:22:21.777Z,14.98
2022-08-26T02:24:51.286Z,15.02
2022-08-26T02:27:22.661Z,14.99
2022-08-26T02:30:14.224Z,14.98
2022-08-26T02:32:44.819Z,14.94
2022-08-26T02:35:19.999Z,14.93
2022-08-26T02:37:49.437Z,14.91
2022-08-26T02:40:22.053Z,14.93
2022-08-26T02:42:49.843Z,14.92
2022-08-26T02:45:23.235Z,14.94
2022-08-26T02:47:52.494Z,14.94
2022-08-26T02:50:20.722Z,14.93
2022-08-26T02:52:48.636Z,14.89
2022-08-26T02:55:16.326Z,14.92
2022-08-26T02:57:43.872Z,14.95
2022-08-26T03:00:14.743Z,14.99
2022-08-26T03:02:42.383Z,14.97
2022-08-26T03:05:11.400Z,14.98
2022-08-26T03:07:39.279Z,14.99
2022-08-26T03:10:08.453Z,14.99
2022-08-26T03:12:37.054Z,14.95
2022-08-26T03:15:17.518Z,14.98
2022-08-26T03:17:47.189Z,14.94
2022-08-26T03:20:15.789Z,14.91
2022-08-26T03:22:45.214Z,14.92
2022-08-26T03:25:14.529Z,14.88
2022-08-26T03:27:43.036Z,14.83
2022-08-26T03:30:31.049Z,14.86
2022-08-26T03:32:59.575Z,14.83
2022-08-26T03:35:26.749Z,14.78
2022-08-26T03:37:54.059Z,14.83
2022-08-26T03:40:22.365Z,14.88
2022-08-26T03:42:50.234Z,14.84
2022-08-26T03:45:18.886Z,14.84
2022-08-26T03:47:47.511Z,14.83
2022-08-26T03:50:22.605Z,14.83
2022-08-26T03:52:52.233Z,14.83
2022-08-26T03:55:23.693Z,14.82
2022-08-26T03:57:52.533Z,14.81
2022-08-26T04:00:20.901Z,14.81
2022-08-26T04:02:53.298Z,14.82
2022-08-26T04:05:22.892Z,14.79
2022-08-26T04:07:50.976Z,14.82
2022-08-26T04:10:20.207Z,14.86
2022-08-26T04:12:48.608Z,14.90
2022-08-26T04:15:17.847Z,14.94
2022-08-26T04:17:45.493Z,15.00
2022-08-26T04:20:16.241Z,15.10
2022-08-26T04:22:44.901Z,15.21
2022-08-26T04:25:13.168Z,15.32
2022-08-26T04:27:40.972Z,15.39
2022-08-26T04:30:09.666Z,15.49
2022-08-26T04:32:37.325Z,15.61
2022-08-26T04:35:05.350Z,15.72
2022-08-26T04:37:33.794Z,16.00
2022-08-26T04:40:01.245Z,16.18
2022-08-26T04:42:29.942Z,16.40
2022-08-26T04:44:57.245Z,16.59
2022-08-26T04:47:27.139Z,16.95
2022-08-26T04:49:58.177Z,17.21
2022-08-26T04:52:25.503Z,17.47
2022-08-26T04:54:55.485Z,17.73
2022-08-26T04:57:23.585Z,18.09
2022-08-26T04:59:50.811Z,18.39
2022-08-26T05:02:18.320Z,18.60
2022-08-26T05:04:46.894Z,18.74
2022-08-26T05:07:14.055Z,19.02
2022-08-26T05:09:45.490Z,19.48
2022-08-26T05:12:13.243Z,19.84
2022-08-26T05:14:41.454Z,20.23
2022-08-26T05:17:09.472Z,20.47
2022-08-26T05:19:42.960Z,20.85
2022-08-26T05:22:10.521Z,21.15
2022-08-26T05:24:41.273Z,21.33
2022-08-26T05:27:11.770Z,21.38
2022-08-26T05:29:40.926Z,21.31
2022-08-26T05:32:08.305Z,21.35
2022-08-26T05:34:39.038Z,21.27
2022-08-26T05:37:06.521Z,21.22
2022-08-26T05:39:34.614Z,21.25
2022-08-26T05:42:03.307Z,21.15
2022-08-26T05:44:53.560Z,21.16
2022-08-26T05:47:18.453Z,21.38
2022-08-26T05:49:51.363Z,21.54
2022-08-26T05:52:20.137Z,21.81
2022-08-26T05:54:47.668Z,22.05
2022-08-26T05:57:16.034Z,22.36
2022-08-26T05:59:46.005Z,22.44
2022-08-26T06:02:13.275Z,22.61
2022-08-26T06:04:41.139Z,22.97
2022-08-26T06:07:09.944Z,23.22
2022-08-26T06:09:39.546Z,23.23
2022-08-26T06:12:07.021Z,23.27
2022-08-26T06:14:36.128Z,23.46
2022-08-26T06:17:04.828Z,23.69
2022-08-26T06:19:33.056Z,23.89
2022-08-26T06:22:23.459Z,23.92
2022-08-26T06:25:10.537Z,23.67
2022-08-26T06:27:38.486Z,23.72
2022-08-26T06:30:07.018Z,23.63
2022-08-26T06:32:34.631Z,23.50
2022-08-26T06:35:02.801Z,23.30
2022-08-26T06:37:30.207Z,23.27
2022-08-26T06:39:57.907Z,23.28
2022-08-26T06:42:25.580Z,23.23
2022-08-26T06:44:54.054Z,23.50
2022-08-26T06:47:21.485Z,23.49
2022-08-26T06:49:50.363Z,23.63
2022-08-26T06:52:22.979Z,23.92
2022-08-26T06:54:52.078Z,24.08
2022-08-26T06:57:20.514Z,24.26
2022-08-26T06:59:51.092Z,24.37
2022-08-26T07:02:19.655Z,24.58
2022-08-26T07:04:48.177Z,24.75
2022-08-26T07:07:18.728Z,25.07
2022-08-26T07:09:52.393Z,25.16
2022-08-26T07:12:20.843Z,25.38
2022-08-26T07:14:48.661Z,25.57
2022-08-26T07:17:16.903Z,25.77
2022-08-26T07:19:47.008Z,26.03
2022-08-26T07:22:15.162Z,26.16
2022-08-26T07:24:43.953Z,26.22
2022-08-26T07:27:14.146Z,25.94
2022-08-26T07:29:43.788Z,25.95
2022-08-26T07:32:13.657Z,26.17
2022-08-26T07:34:42.037Z,26.29
2022-08-26T07:37:09.860Z,26.34
2022-08-26T07:39:37.914Z,26.63
2022-08-26T07:42:09.636Z,26.46
2022-08-26T07:44:37.678Z,26.16
2022-08-26T07:47:19.391Z,26.24
2022-08-26T07:49:55.697Z,26.40
2022-08-26T07:52:26.928Z,26.38
2022-08-26T07:54:58.928Z,26.60
2022-08-26T07:57:27.425Z,26.68
2022-08-26T07:59:55.539Z,26.55
2022-08-26T08:02:23.914Z,26.65
2022-08-26T08:04:52.346Z,26.78
2022-08-26T08:07:20.375Z,27.04
2022-08-26T08:09:51.478Z,27.16
2022-08-26T08:12:19.841Z,27.38
2022-08-26T08:14:48.487Z,27.23
2022-08-26T08:17:16.853Z,27.33
2022-08-26T08:19:44.627Z,27.31
2022-08-26T08:22:17.424Z,27.53
2022-08-26T08:24:49.680Z,27.62
2022-08-26T08:27:21.515Z,27.67
2022-08-26T08:29:54.938Z,27.86
2022-08-26T08:32:23.635Z,27.93
2022-08-26T08:34:51.684Z,27.70
2022-08-26T08:37:19.250Z,27.54
2022-08-26T08:39:46.675Z,27.53
2022-08-26T08:42:46.930Z,27.48
2022-08-26T08:45:22.930Z,27.77
2022-08-26T08:47:54.611Z,27.92
2022-08-26T08:50:26.564Z,27.67
2022-08-26T08:53:15.549Z,27.85
2022-08-26T08:56:18.269Z,27.91
2022-08-26T08:59:05.090Z,28.16
2022-08-26T09:01:52.563Z,28.29
2022-08-26T09:04:52.456Z,28.24
2022-08-26T09:07:27.611Z,28.44
2022-08-26T09:09:55.993Z,28.48
2022-08-26T09:12:29.390Z,28.05
2022-08-26T09:15:07.534Z,27.94
2022-08-26T09:17:41.045Z,27.92
2022-08-26T09:20:40.583Z,27.88
2022-08-26T09:23:10.605Z,27.87
2022-08-26T09:25:50.916Z,27.80
2022-08-26T09:28:20.875Z,27.96
2022-08-26T09:31:07.976Z,28.16
2022-08-26T09:33:38.191Z,28.21
2022-08-26T09:36:24.860Z,28.18
2022-08-26T09:38:54.093Z,28.32
2022-08-26T09:41:26.013Z,28.34
2022-08-26T09:44:14.529Z,28.63
2022-08-26T09:46:47.298Z,28.76
2022-08-26T09:49:36.581Z,28.96
2022-08-26T09:52:14.210Z,28.97
2022-08-26T09:54:44.411Z,29.00
2022-08-26T09:57:23.649Z,28.99
2022-08-26T09:59:51.433Z,28.82
2022-08-26T10:02:36.336Z,28.87
2022-08-26T10:05:09.574Z,28.78
2022-08-26T10:07:44.657Z,28.76
2022-08-26T10:10:30.561Z,28.67
2022-08-26T10:13:16.943Z,28.67
2022-08-26T10:15:53.043Z,28.79
2022-08-26T10:18:30.707Z,28.96
2022-08-26T10:21:39.985Z,29.02
2022-08-26T10:24:11.279Z,29.01
2022-08-26T10:27:05.930Z,28.95
2022-08-26T10:29:41.875Z,28.89
2022-08-26T10:32:15.130Z,28.94
2022-08-26T10:35:04.150Z,28.83
2022-08-26T10:37:40.303Z,28.80
2022-08-26T10:40:30.049Z,28.88
2022-08-26T10:43:27.160Z,29.01
2022-08-26T10:45:59.721Z,29.01
2022-08-26T10:48:54.336Z,29.08
2022-08-26T10:51:35.680Z,29.17
2022-08-26T10:54:29.671Z,29.20
2022-08-26T10:57:34.992Z,29.25
2022-08-26T11:00:38.661Z,29.29
2022-08-26T11:03:28.161Z,29.35
2022-08-26T11:06:20.307Z,29.62
2022-08-26T11:08:50.139Z,29.82
2022-08-26T11:11:42.430Z,29.90
2022-08-26T11:14:09.898Z,29.74
2022-08-26T11:16:52.234Z,29.93
2022-08-26T11:20:01.950Z,30.08
2022-08-26T11:22:33.704Z,30.11
2022-08-26T11:25:13.060Z,30.19
2022-08-26T11:27:41.687Z,30.38
2022-08-26T11:30:18.266Z,30.58
2022-08-26T11:32:48.673Z,30.66
2022-08-26T11:35:23.536Z,30.55
2022-08-26T11:37:59.720Z,30.64
2022-08-26T11:40:33.740Z,30.73
2022-08-26T11:43:07.872Z,30.71
2022-08-26T11:45:39.873Z,30.80
2022-08-26T11:48:35.879Z,30.66
2022-08-26T11:51:11.421Z,30.75
2022-08-26T11:53:44.702Z,30.92
2022-08-26T11:56:33.403Z,30.80
2022-08-26T11:59:03.190Z,30.62
2022-08-26T12:01:44.113Z,30.66
2022-08-26T12:04:18.297Z,30.73
2022-08-26T12:06:49.380Z,30.81
2022-08-26T12:09:33.078Z,30.68
2022-08-26T12:12:17.415Z,30.54
2022-08-26T12:14:45.202Z,30.66
2022-08-26T12:17:27.434Z,30.81
2022-08-26T12:19:54.855Z,30.79
2022-08-26T12:22:27.275Z,30.74
2022-08-26T12:25:03.720Z,30.61
2022-08-26T12:28:00.786Z,30.37
2022-08-26T12:30:28.327Z,30.13
2022-08-26T12:33:22.421Z,29.84
2022-08-26T12:35:56.584Z,29.66
2022-08-26T12:38:26.552Z,29.55
2022-08-26T12:40:54.855Z,29.47
2022-08-26T12:43:45.195Z,29.42
2022-08-26T12:46:17.563Z,29.52
2022-08-26T12:48:49.199Z,29.52
2022-08-26T12:51:28.498Z,29.57
2022-08-26T12:53:56.467Z,29.51
2022-08-26T12:56:32.721Z,29.56
2022-08-26T12:59:04.924Z,29.82
2022-08-26T13:01:44.499Z,30.05
2022-08-26T13:04:36.601Z,30.50
2022-08-26T13:07:24.585Z,30.72
2022-08-26T13:09:54.571Z,30.77
2022-08-26T13:12:26.362Z,30.64
2022-08-26T13:14:54.426Z,30.56
2022-08-26T13:17:22.312Z,30.79
2022-08-26T13:19:50.197Z,30.94
2022-08-26T13:22:23.235Z,31.07
2022-08-26T13:24:54.474Z,31.04
2022-08-26T13:27:24.332Z,30.88
2022-08-26T13:29:52.628Z,30.81
2022-08-26T13:32:20.756Z,30.84
2022-08-26T13:34:51.343Z,30.91
2022-08-26T13:37:22.322Z,30.90
2022-08-26T13:40:01.972Z,30.96
2022-08-26T13:42:29.987Z,31.10
2022-08-26T13:44:58.341Z,31.18
2022-08-26T13:47:27.731Z,31.14
2022-08-26T13:49:56.657Z,31.09
2022-08-26T13:52:30.065Z,31.13
2022-08-26T13:55:01.665Z,31.20
2022-08-26T13:57:30.618Z,31.20
2022-08-26T13:59:59.690Z,31.05
2022-08-26T14:02:28.331Z,30.80
2022-08-26T14:04:56.232Z,30.85
2022-08-26T14:07:23.945Z,30.88
2022-08-26T14:09:51.723Z,30.88
2022-08-26T14:12:19.795Z,30.84
2022-08-26T14:14:47.659Z,30.75
2022-08-26T14:17:19.269Z,30.64
2022-08-26T14:19:49.298Z,30.53
2022-08-26T14:22:19.096Z,30.54
2022-08-26T14:24:46.551Z,30.53
2022-08-26T14:27:14.398Z,30.64
2022-08-26T14:29:42.281Z,30.66
2022-08-26T14:32:21.387Z,30.59
2022-08-26T14:34:50.762Z,30.52
2022-08-26T14:37:19.397Z,30.60
2022-08-26T14:39:47.026Z,30.60
2022-08-26T14:42:15.996Z,30.57
2022-08-26T14:44:46.845Z,30.62
2022-08-26T14:47:14.267Z,30.52
2022-08-26T14:49:42.150Z,30.49
2022-08-26T14:52:09.719Z,30.43
2022-08-26T14:54:38.002Z,30.53
2022-08-26T14:57:08.261Z,30.60
2022-08-26T14:59:41.840Z,30.67
2022-08-26T15:02:18.188Z,30.74
2022-08-26T15:04:59.010Z,30.72
2022-08-26T15:07:26.709Z,30.69
2022-08-26T15:09:54.246Z,30.82
2022-08-26T15:12:22.138Z,30.90
2022-08-26T15:14:49.867Z,30.77
2022-08-26T15:17:17.638Z,30.82
2022-08-26T15:19:45.084Z,30.83
2022-08-26T15:22:12.721Z,30.65
2022-08-26T15:24:40.214Z,30.69
2022-08-26T15:27:08.625Z,30.64
2022-08-26T15:29:36.502Z,30.68
2022-08-26T15:32:05.036Z,30.59
2022-08-26T15:34:32.629Z,30.44
2022-08-26T15:37:00.408Z,30.47
2022-08-26T15:39:28.007Z,30.44
2022-08-26T15:41:56.999Z,30.47
2022-08-26T15:44:26.088Z,30.49
2022-08-26T15:46:58.860Z,30.34
2022-08-26T15:49:27.641Z,30.37
2022-08-26T15:51:55.230Z,30.26
2022-08-26T15:54:24.047Z,30.35
2022-08-26T15:56:53.445Z,30.31
2022-08-26T15:59:22.570Z,30.28
2022-08-26T16:01:50.658Z,30.26
2022-08-26T16:04:18.950Z,30.23
2022-08-26T16:06:48.026Z,30.15
2022-08-26T16:09:16.451Z,30.10
2022-08-26T16:11:50.025Z,30.06
2022-08-26T16:14:17.672Z,30.02
2022-08-26T16:16:45.719Z,30.01
2022-08-26T16:19:13.586Z,29.97
2022-08-26T16:21:41.665Z,29.93
2022-08-26T16:24:09.838Z,29.85
2022-08-26T16:26:38.712Z,29.92
2022-08-26T16:29:14.126Z,29.76
2022-08-26T16:31:42.537Z,29.82
2022-08-26T16:34:10.393Z,29.82
2022-08-26T16:36:39.066Z,29.70
2022-08-26T16:39:08.123Z,29.64
2022-08-26T16:41:36.330Z,29.67
2022-08-26T16:44:04.327Z,29.60
2022-08-26T16:46:34.173Z,29.49
2022-08-26T16:49:04.583Z,29.34
2022-08-26T16:51:32.662Z,29.31
2022-08-26T16:54:07.802Z,29.17
2022-08-26T16:56:35.594Z,29.14
2022-08-26T16:59:06.419Z,28.94
2022-08-26T17:01:34.311Z,28.73
2022-08-26T17:04:01.800Z,28.47
2022-08-26T17:06:29.835Z,28.32
2022-08-26T17:08:57.371Z,28.07
2022-08-26T17:11:24.756Z,27.90
2022-08-26T17:13:52.440Z,27.66
2022-08-26T17:16:23.326Z,27.69
2022-08-26T17:18:56.023Z,27.57
2022-08-26T17:21:24.118Z,27.27
2022-08-26T17:23:52.030Z,26.85
2022-08-26T17:26:20.179Z,26.53
2022-08-26T17:28:47.786Z,26.16
2022-08-26T17:31:15.289Z,25.74
2022-08-26T17:33:45.086Z,25.53
2022-08-26T17:36:15.087Z,25.22
2022-08-26T17:38:42.396Z,24.93
2022-08-26T17:41:13.844Z,24.56
2022-08-26T17:43:41.327Z,24.25
2022-08-26T17:46:10.932Z,24.15
2022-08-26T17:48:40.544Z,23.93
2022-08-26T17:51:12.962Z,23.73
2022-08-26T17:53:41.545Z,23.64
2022-08-26T17:56:11.828Z,23.49
2022-08-26T17:58:41.596Z,23.42
2022-08-26T18:01:20.767Z,23.17
2022-08-26T18:03:48.936Z,23.05
2022-08-26T18:06:16.390Z,22.93
2022-08-26T18:08:45.147Z,22.76
2022-08-26T18:11:16.893Z,22.63
2022-08-26T18:13:47.053Z,22.30
2022-08-26T18:16:15.942Z,22.09
2022-08-26T18:18:43.735Z,21.82
2022-08-26T18:21:16.135Z,21.72
2022-08-26T18:23:45.026Z,21.67
2022-08-26T18:26:17.530Z,21.68
2022-08-26T18:28:45.162Z,21.73
2022-08-26T18:31:12.629Z,21.71
2022-08-26T18:33:40.821Z,21.70
2022-08-26T18:36:08.132Z,21.61
2022-08-26T18:38:35.391Z,21.62
2022-08-26T18:41:04.466Z,21.56
2022-08-26T18:43:31.956Z,21.53
2022-08-26T18:46:04.901Z,21.50
2022-08-26T18:48:32.504Z,21.47
2022-08-26T18:51:00.317Z,21.41
2022-08-26T18:53:28.734Z,21.33
2022-08-26T18:55:56.888Z,21.28
2022-08-26T18:58:24.272Z,21.24
2022-08-26T19:00:52.514Z,21.23
2022-08-26T19:03:20.147Z,21.16
2022-08-26T19:05:47.599Z,21.08
2022-08-26T19:08:15.113Z,21.00
2022-08-26T19:10:42.716Z,21.03
2022-08-26T19:13:10.450Z,20.98
2022-08-26T19:15:42.748Z,20.95
2022-08-26T19:18:11.595Z,20.89
2022-08-26T19:20:45.963Z,20.82
2022-08-26T19:23:30.873Z,20.76
2022-08-26T19:25:59.469Z,20.73
2022-08-26T19:28:27.221Z,20.67
2022-08-26T19:30:54.562Z,20.61
2022-08-26T19:33:22.281Z,20.57
2022-08-26T19:35:49.990Z,20.47
2022-08-26T19:38:17.730Z,20.43
2022-08-26T19:40:45.194Z,20.37
2022-08-26T19:43:12.886Z,20.28
2022-08-26T19:45:42.190Z,20.20
2022-08-26T19:48:11.526Z,20.12
2022-08-26T19:50:39.283Z,20.01
2022-08-26T19:53:06.713Z,20.01
2022-08-26T19:55:34.688Z,19.93
2022-08-26T19:58:02.490Z,19.89
2022-08-26T20:00:32.059Z,19.75
2022-08-26T20:03:00.052Z,19.72
2022-08-26T20:05:27.960Z,19.66
2022-08-26T20:07:55.581Z,19.58
2022-08-26T20:10:23.983Z,19.44
2022-08-26T20:12:52.754Z,19.41
2022-08-26T20:15:24.269Z,19.35
2022-08-26T20:17:52.553Z,19.28
2022-08-26T20:20:38.781Z,19.24
2022-08-26T20:23:06.296Z,19.14
2022-08-26T20:25:34.356Z,19.08
2022-08-26T20:28:02.458Z,19.06
2022-08-26T20:30:30.132Z,18.96
2022-08-26T20:32:57.817Z,18.93
2022-08-26T20:35:25.381Z,18.79
2022-08-26T20:37:53.042Z,18.78
2022-08-26T20:40:21.578Z,18.75
2022-08-26T20:42:49.357Z,18.68
2022-08-26T20:45:17.282Z,18.63
2022-08-26T20:47:45.198Z,18.62
2022-08-26T20:50:12.554Z,18.52
2022-08-26T20:52:40.436Z,18.31
2022-08-26T20:55:09.248Z,18.29
2022-08-26T20:57:37.643Z,18.44
2022-08-26T21:00:07.273Z,18.60
2022-08-26T21:02:35.465Z,18.80
2022-08-26T21:05:03.118Z,18.90
2022-08-26T21:07:31.091Z,18.93
2022-08-26T21:09:59.596Z,19.08
2022-08-26T21:12:27.494Z,19.14
2022-08-26T21:14:55.289Z,19.13
2022-08-26T21:17:23.698Z,19.13
2022-08-26T21:19:51.861Z,19.24
2022-08-26T21:22:20.522Z,19.20
2022-08-26T21:24:49.077Z,19.16
2022-08-26T21:27:17.615Z,19.09
2022-08-26T21:29:52.010Z,19.00
2022-08-26T21:32:20.208Z,18.89
2022-08-26T21:34:48.096Z,18.74
2022-08-26T21:37:16.701Z,18.69
2022-08-26T21:39:45.097Z,18.64
2022-08-26T21:42:13.107Z,18.66
2022-08-26T21:44:40.941Z,18.59
2022-08-26T21:47:08.791Z,18.54
2022-08-26T21:49:36.827Z,18.49
2022-08-26T21:52:05.479Z,18.47
2022-08-26T21:54:33.841Z,18.45
2022-08-26T21:57:01.607Z,18.40
2022-08-26T21:59:30.118Z,18.37
2022-08-26T22:01:59.061Z,18.25
2022-08-26T22:04:26.804Z,18.21
2022-08-26T22:06:57.737Z,18.09
2022-08-26T22:09:27.418Z,18.13
2022-08-26T22:11:57.018Z,18.12
2022-08-26T22:14:30.947Z,18.08
2022-08-26T22:16:59.524Z,18.05
2022-08-26T22:19:27.566Z,17.99
2022-08-26T22:21:56.072Z,17.96
2022-08-26T22:24:25.984Z,17.93
2022-08-26T22:26:54.976Z,17.91
2022-08-26T22:29:24.571Z,17.87
2022-08-26T22:31:53.107Z,17.82
2022-08-26T22:34:23.153Z,17.70
2022-08-26T22:36:51.378Z,17.67
2022-08-26T22:39:22.270Z,17.69
2022-08-26T22:41:52.166Z,17.67
2022-08-26T22:44:22.330Z,17.65
2022-08-26T22:46:51.876Z,17.64
2022-08-26T22:49:20.011Z,17.59
2022-08-26T22:51:47.725Z,17.58
2022-08-26T22:54:16.663Z,17.51
2022-08-26T22:56:45.161Z,17.46
2022-08-26T22:59:13.150Z,17.42
2022-08-26T23:01:42.944Z,17.40
2022-08-26T23:04:11.677Z,17.30
2022-08-26T23:06:41.007Z,17.36
2022-08-26T23:09:09.216Z,17.38
2022-08-26T23:11:38.205Z,17.29
2022-08-26T23:14:09.547Z,17.28
2022-08-26T23:16:39.513Z,17.24
2022-08-26T23:19:09.840Z,17.20
2022-08-26T23:21:38.047Z,17.18
2022-08-26T23:24:06.742Z,17.16
2022-08-26T23:26:34.823Z,17.15
2022-08-26T23:29:02.815Z,17.11
2022-08-26T23:31:30.578Z,17.12
2022-08-26T23:34:17.230Z,17.12
2022-08-26T23:36:45.723Z,17.11
2022-08-26T23:39:15.540Z,17.05
2022-08-26T23:41:43.370Z,16.97
2022-08-26T23:44:12.559Z,16.95
2022-08-26T23:46:40.450Z,16.88
2022-08-26T23:49:07.979Z,16.79
2022-08-26T23:51:54.275Z,16.79
2022-08-26T23:54:22.077Z,16.76
2022-08-26T23:56:49.773Z,16.76
2022-08-26T23:59:17.637Z,16.73
